Terminal Aerodrome Forecast
Issued by NWS

Home | Current Version | Previous Version | Graphics & Text | Print | Product List | Glossary On
Versions: 1 2 3 4 5 6 7 8 9 10 11 12 13
000
FTUS43 KMPX 220520
TAFAXN
TAF
KAXN 220520Z 2206/2306 31010KT P6SM SKC
     FM221400 33018G26KT P6SM FEW050 FEW250
     FM230000 33008KT P6SM FEW250=

USA.gov is the U.S. government's official web portal to all federal, state and local government web resources and services.